Terminal Aerodrome Forecast
Issued by NWS

Current Version | Previous Version | Graphics & Text | Print | Product List | Glossary On
Versions: 1 2 3 4 5 6 7 8 9 10 11 12 13 14 15 16 17 18 19 20 21 22 23
000
FTUS41 KPBZ 231700
TAFMGW
TAF
KMGW 231740Z 2318/2418 VRB03KT P6SM SCT025 OVC100
     FM232300 16003KT 3SM -RA OVC020
     FM240200 VRB03KT 2SM -RASN OVC006
     FM240600 34002KT 2SM -SN OVC006
     FM241200 32003KT 4SM BR OVC015=

USA.gov is the U.S. government's official web portal to all federal, state and local government web resources and services.